• Join FlightAware (Why Join?)
  • Login
  • US Flag 
08:32PM EDT


 

Airport Tracker/Info


-or-


 

Live Flight TrackerFlight Track Log ✈ N129CG ✈ 30-Mar-2014 ✈ MYBS / BIM - KTMB

Flight Track Log - Related Links

Times and Time Zones

All times are in EDT time to prevent confusion due to time zone crossing. See the N129CG flight status page for this flight to view local times or setup timezone preferences in your user account.

Time Position Orientation Groundspeed Altitude Reporting Facility
EDT Latitude Longitude Course Direction KTS MPH feet Rate Location/Type
05:55PM 25.5409 -79.4773 232° Southwest  Level FlightAware Approximate
05:56PM 25.5154 -79.5138 232° Southwest  Level FlightAware Approximate
05:57PM 25.4899 -79.5502 232° Southwest  Level FlightAware Approximate
05:58PM 25.4645 -79.5867 235° Southwest  Level FlightAware Approximate
05:58PM 25.6783 -79.8331 247° West 139 160 4,100  Level Miami Center
05:59PM 25.4409 -79.6247 235° Southwest  Level FlightAware Approximate
05:59PM 25.6817 -79.8656 276° West 156 180 3,900  Level Miami Center
06:00PM 25.4172 -79.6626 235° Southwest  Level FlightAware Approximate
06:00PM 25.6769 -79.8975 261° West 147 169 3,600  Level Miami Center
06:00PM 25.6786 -79.9114 278° West 156 180 3,500 -420 Descending Miami Center
06:01PM 25.3935 -79.7004 235° Southwest  Level FlightAware Approximate
06:01PM 25.6758 -79.9461 265° West 156 180 3,200  Level Miami Center
06:01PM 25.6756 -79.9597 269° West 156 180 3,100 -480 Descending Miami Center
06:02PM 25.3975 -79.7378 306° West  Level FlightAware Approximate
06:02PM 25.6706 -80.0011 262° West 158 182 2,700  Level Miami Center
06:02PM 25.6747 -80.0081 304° West 156 180 2,700 -480 Level Miami Center
06:03PM 25.4221 -79.7750 306° West  Level FlightAware Approximate
06:03PM 25.6694 -80.0472 262° West 161 185 2,300  Level Miami Center
06:03PM 25.6694 -80.0589 270° West 156 180 2,300 -300 Level Miami Center
06:04PM 25.4466 -79.8122 306° West  Level FlightAware Approximate
06:04PM 25.6644 -80.0956 261° West 162 186 2,000  Level Miami Center
06:04PM 25.6683 -80.1072 290° West 156 180 2,000  Level Miami Center
06:05PM 25.6631 -80.1486 262° West 148 170 2,000  Level Miami Center
06:05PM 25.6631 -80.1508 270° West 156 180 2,000  Level Miami Center
06:06PM 25.6558 -80.1944 260° West 145 167 2,000  Level Miami Center
06:06PM 25.6600 -80.1967 334° Northwest 156 180 2,000  Level Miami Center
06:07PM 25.6486 -80.2333 251° West 147 169 2,000  Level Miami Center
06:07PM 25.6506 -80.2403 287° West 156 180 2,000  Level Miami Center
06:08PM 25.6475 -80.2794 265° West 142 163 2,000  Level Miami Center
06:08PM 25.6497 -80.2842 298° West 151 174 2,000 -120 Level Miami Center
06:09PM 25.6444 -80.3278 262° West 142 163 1,900 -540 Descending Miami Center
06:10PM 25.6414 -80.3692 265° West 139 160 1,000 -720 Descending Miami Center
06:11PM 25.6425 -80.4036 272° West 119 137 600 -480 Descending Miami Center
06:13PM 25.6333 -80.4167 200° South  Level FlightAware Approximate
06:20PM 25.6476 -80.4332 200° South  Level Estimated